Time;durP1;ratioP1;P1;durP2;ratioP2;P2;SDS_P1;SDS_P2;PMS_P1;PMS_P2;Temp;Humidity;BMP_temperature;BMP_pressure;BME280_temperature;BME280_humidity;BME280_pressure;Samples;Min_cycle;Max_cycle;Signal;HPM_P1;HPM_P2
2023/11/20 00:01:03;;;;;;;6.13;2.90;;;13.60;99.90;;;;;;5038667;28;20429;-68
2023/11/20 00:03:28;;;;;;;11.03;2.73;;;13.70;99.90;;;;;;5040907;28;20446;-68
2023/11/20 00:05:54;;;;;;;12.57;3.70;;;13.60;99.90;;;;;;5035748;28;20188;-68
2023/11/20 00:08:19;;;;;;;9.47;2.87;;;13.60;99.90;;;;;;5037691;28;20179;-68
2023/11/20 00:10:45;;;;;;;7.53;2.93;;;13.70;99.90;;;;;;5037195;28;20187;-69
2023/11/20 00:13:11;;;;;;;7.53;2.80;;;13.60;99.90;;;;;;5038165;28;20670;-68
2023/11/20 00:15:36;;;;;;;11.73;3.50;;;13.60;99.90;;;;;;5036557;28;20180;-68
2023/11/20 00:18:04;;;;;;;17.37;3.60;;;13.70;99.90;;;;;;5036664;28;20180;-68
2023/11/20 00:20:31;;;;;;;10.57;2.70;;;13.70;99.90;;;;;;5037269;28;20186;-68
2023/11/20 00:22:56;;;;;;;14.13;2.90;;;13.70;99.90;;;;;;5042158;28;20606;-68
2023/11/20 00:25:22;;;;;;;11.53;4.00;;;13.70;99.90;;;;;;5040619;28;20544;-68
2023/11/20 00:27:48;;;;;;;9.47;2.53;;;13.70;99.90;;;;;;5038796;28;20541;-69
2023/11/20 00:30:13;;;;;;;8.47;3.40;;;13.80;99.90;;;;;;5039000;28;20208;-68
2023/11/20 00:32:39;;;;;;;9.83;3.00;;;13.80;99.90;;;;;;5037756;28;20211;-68
2023/11/20 00:35:04;;;;;;;7.53;3.20;;;13.80;99.90;;;;;;5039663;28;20183;-68
2023/11/20 00:37:30;;;;;;;8.97;2.83;;;13.70;99.90;;;;;;5038698;28;20267;-68
2023/11/20 00:39:55;;;;;;;8.60;2.80;;;13.80;99.90;;;;;;5039704;28;20684;-68
2023/11/20 00:42:21;;;;;;;19.00;4.50;;;13.80;99.90;;;;;;5038022;28;20191;-68
2023/11/20 00:44:46;;;;;;;13.53;3.87;;;13.80;99.90;;;;;;5036384;28;20207;-68
2023/11/20 00:47:12;;;;;;;9.73;3.10;;;13.80;99.90;;;;;;5037495;28;20199;-68
2023/11/20 00:49:38;;;;;;;17.03;4.17;;;13.90;99.90;;;;;;5036658;28;20259;-68
2023/11/20 00:52:04;;;;;;;15.57;4.10;;;14.00;99.90;;;;;;5035960;28;20277;-68
2023/11/20 00:54:29;;;;;;;12.73;3.10;;;14.00;99.90;;;;;;5036984;28;20196;-68
2023/11/20 00:56:55;;;;;;;10.10;3.30;;;14.00;99.90;;;;;;5040833;28;20652;-68
2023/11/20 00:59:20;;;;;;;15.33;3.60;;;14.00;99.90;;;;;;5038863;28;20188;-68
2023/11/20 01:01:46;;;;;;;10.83;3.20;;;14.00;99.90;;;;;;5040505;28;20619;-69
2023/11/20 01:04:11;;;;;;;9.93;3.20;;;14.00;99.90;;;;;;5042952;28;20291;-67
2023/11/20 01:06:41;;;;;;;13.63;3.90;;;14.10;99.90;;;;;;5038198;28;20183;-68
2023/11/20 01:09:07;;;;;;;10.93;3.00;;;14.10;99.90;;;;;;5035851;28;20185;-68
2023/11/20 01:11:33;;;;;;;13.67;3.13;;;14.10;99.90;;;;;;5039457;28;20417;-68
2023/11/20 01:14:01;;;;;;;10.03;3.10;;;14.10;99.90;;;;;;5037649;28;20789;-68
2023/11/20 01:16:27;;;;;;;9.77;3.53;;;14.10;99.90;;;;;;5035873;28;20410;-68
2023/11/20 01:18:54;;;;;;;15.33;3.60;;;14.10;99.90;;;;;;5034615;28;20426;-68
2023/11/20 01:21:21;;;;;;;12.67;3.40;;;14.10;99.90;;;;;;5039287;28;20472;-68
2023/11/20 01:23:47;;;;;;;8.47;3.13;;;14.10;99.90;;;;;;5035792;28;20566;-68
2023/11/20 01:26:12;;;;;;;8.70;3.37;;;14.10;99.90;;;;;;5035547;28;20518;-68
2023/11/20 01:28:38;;;;;;;11.67;3.30;;;14.10;99.90;;;;;;5041022;28;20672;-68
2023/11/20 01:31:04;;;;;;;16.57;3.83;;;14.10;99.90;;;;;;5037125;28;20206;-68
2023/11/20 01:33:29;;;;;;;18.13;4.93;;;14.00;99.90;;;;;;5042550;28;20306;-68
2023/11/20 01:35:55;;;;;;;13.80;3.53;;;14.10;99.90;;;;;;5038142;28;20176;-68
2023/11/20 01:38:21;;;;;;;14.80;3.00;;;14.10;99.90;;;;;;5037500;28;20176;-68
2023/11/20 01:40:53;;;;;;;13.33;4.40;;;14.10;99.90;;;;;;5039983;28;20199;-68
2023/11/20 01:43:19;;;;;;;14.53;3.97;;;14.10;99.90;;;;;;5034976;28;20213;-68
2023/11/20 01:45:45;;;;;;;14.67;4.00;;;14.10;99.90;;;;;;5035484;28;20470;-67
2023/11/20 01:48:11;;;;;;;10.60;2.93;;;14.10;99.90;;;;;;5033651;28;20313;-68
2023/11/20 01:50:37;;;;;;;16.33;4.20;;;14.10;99.90;;;;;;5038659;28;20418;-68
2023/11/20 01:53:04;;;;;;;15.60;3.10;;;14.10;99.90;;;;;;5036788;28;20537;-68
2023/11/20 01:55:31;;;;;;;14.27;3.00;;;14.10;99.90;;;;;;5039497;28;20234;-68
2023/11/20 01:57:57;;;;;;;16.17;3.73;;;14.10;99.90;;;;;;5031878;28;20439;-69
2023/11/20 02:00:24;;;;;;;13.23;2.90;;;14.00;99.90;;;;;;5033823;28;20422;-68
2023/11/20 02:02:50;;;;;;;11.10;3.47;;;14.00;99.90;;;;;;5036549;28;20841;-68
2023/11/20 02:05:15;;;;;;;11.57;3.53;;;14.00;99.90;;;;;;5034501;28;20519;-69
2023/11/20 02:07:42;;;;;;;9.37;3.00;;;14.00;99.90;;;;;;5033928;28;20172;-69
2023/11/20 02:10:08;;;;;;;9.90;2.90;;;14.00;99.90;;;;;;5032159;28;20754;-69
2023/11/20 02:12:36;;;;;;;13.10;3.33;;;14.00;99.90;;;;;;5032669;28;20467;-68
2023/11/20 02:15:02;;;;;;;12.33;3.40;;;14.10;99.90;;;;;;5036256;28;20184;-68
2023/11/20 02:17:27;;;;;;;9.67;3.23;;;14.10;99.90;;;;;;5035958;28;20467;-68
2023/11/20 02:19:53;;;;;;;13.27;3.73;;;14.10;99.90;;;;;;5038280;28;20442;-68
2023/11/20 02:22:18;;;;;;;11.13;3.10;;;14.00;99.90;;;;;;5036102;28;20185;-68
2023/11/20 02:24:45;;;;;;;12.47;4.10;;;14.00;99.90;;;;;;5037522;28;20200;-68
2023/11/20 02:27:20;;;;;;;12.03;3.27;;;14.00;99.90;;;;;;5035902;28;20182;-69
2023/11/20 02:29:53;;;;;;;11.10;3.10;;;14.00;99.90;;;;;;5038998;28;20779;-69
2023/11/20 02:32:25;;;;;;;10.10;3.90;;;14.10;99.90;;;;;;5034332;28;20422;-69
2023/11/20 02:34:51;;;;;;;13.80;2.87;;;14.10;99.90;;;;;;5038427;28;20433;-69
2023/11/20 02:37:16;;;;;;;14.70;3.37;;;14.00;99.90;;;;;;5038364;28;20434;-69
2023/11/20 02:39:42;;;;;;;9.80;3.33;;;14.10;99.90;;;;;;5041626;28;20552;-69
2023/11/20 02:42:08;;;;;;;12.40;2.70;;;14.10;99.90;;;;;;5040746;28;20436;-69
2023/11/20 02:44:37;;;;;;;8.90;2.77;;;14.10;99.90;;;;;;5042834;28;20591;-68
2023/11/20 02:47:05;;;;;;;9.63;2.73;;;14.10;99.90;;;;;;5037205;28;20187;-68
2023/11/20 02:49:30;;;;;;;15.00;3.20;;;14.10;99.90;;;;;;5042765;28;20410;-69
2023/11/20 02:51:56;;;;;;;12.33;3.43;;;14.20;99.90;;;;;;5036176;28;20441;-68
2023/11/20 02:54:22;;;;;;;11.83;3.03;;;14.20;99.90;;;;;;5042814;28;20210;-69
2023/11/20 02:56:47;;;;;;;8.60;3.20;;;14.10;99.90;;;;;;5040381;28;20184;-69
2023/11/20 02:59:13;;;;;;;10.77;3.07;;;14.10;99.90;;;;;;5043268;28;20195;-68
2023/11/20 03:01:38;;;;;;;19.17;3.60;;;14.10;99.90;;;;;;5036195;28;20193;-69
2023/11/20 03:04:04;;;;;;;12.10;3.43;;;14.10;99.90;;;;;;5041810;28;20204;-69
2023/11/20 03:06:31;;;;;;;12.17;3.20;;;14.10;99.90;;;;;;5040939;28;20327;-69
2023/11/20 03:08:56;;;;;;;14.40;3.33;;;14.10;99.90;;;;;;5037687;28;20522;-69
2023/11/20 03:11:23;;;;;;;16.80;4.00;;;14.10;99.90;;;;;;5041374;28;20532;-69
2023/11/20 03:13:48;;;;;;;11.93;2.97;;;14.00;99.90;;;;;;5039184;28;20223;-69
2023/11/20 03:16:14;;;;;;;10.67;2.77;;;14.00;99.90;;;;;;5039990;28;20505;-68
2023/11/20 03:18:40;;;;;;;13.37;3.60;;;14.00;99.90;;;;;;5038457;28;20318;-68
2023/11/20 03:21:06;;;;;;;10.30;3.37;;;14.00;99.90;;;;;;5038729;28;20552;-68
2023/11/20 03:23:31;;;;;;;10.37;3.20;;;14.00;99.90;;;;;;5045807;28;20450;-68
2023/11/20 03:25:57;;;;;;;11.30;3.43;;;14.00;99.90;;;;;;5037182;28;20473;-68
2023/11/20 03:28:23;;;;;;;5.50;2.13;;;14.10;99.90;;;;;;5039995;28;20176;-68
2023/11/20 03:30:48;;;;;;;12.23;2.70;;;14.00;99.90;;;;;;5034424;28;20802;-68
2023/11/20 03:33:14;;;;;;;16.57;3.70;;;14.00;99.90;;;;;;5041665;28;20208;-68
2023/11/20 03:35:39;;;;;;;11.13;3.60;;;13.90;99.90;;;;;;5038527;28;20314;-67
2023/11/20 03:38:05;;;;;;;10.40;3.17;;;13.80;99.90;;;;;;5039509;28;20180;-68
2023/11/20 03:40:31;;;;;;;10.20;3.07;;;13.80;99.90;;;;;;5039227;28;20188;-67
2023/11/20 03:42:56;;;;;;;14.20;3.80;;;13.80;99.90;;;;;;5044520;28;20204;-68
2023/11/20 03:45:22;;;;;;;13.50;4.30;;;13.80;99.90;;;;;;5039312;28;20219;-67
2023/11/20 03:47:48;;;;;;;13.40;3.03;;;13.90;99.90;;;;;;5039052;28;20251;-67
2023/11/20 03:50:13;;;;;;;11.73;3.50;;;13.90;99.90;;;;;;5040796;28;20518;-67
2023/11/20 03:52:39;;;;;;;14.73;2.80;;;13.90;99.90;;;;;;5041835;28;20283;-67
2023/11/20 03:55:05;;;;;;;16.20;3.53;;;13.80;99.90;;;;;;5040159;28;20184;-67
2023/11/20 03:57:30;;;;;;;12.13;3.63;;;13.90;99.90;;;;;;5039199;28;20255;-67
2023/11/20 03:59:56;;;;;;;12.53;3.23;;;13.90;99.90;;;;;;5025629;28;20194;-67
2023/11/20 04:02:22;;;;;;;10.37;2.83;;;13.90;99.90;;;;;;5039974;28;20727;-68
2023/11/20 04:04:47;;;;;;;13.37;3.70;;;13.90;99.90;;;;;;5040709;28;20759;-69
2023/11/20 04:07:14;;;;;;;16.13;3.20;;;13.90;99.90;;;;;;5039973;28;20178;-68
2023/11/20 04:09:40;;;;;;;18.03;3.97;;;13.90;99.90;;;;;;5034213;28;20255;-68
2023/11/20 04:12:06;;;;;;;11.40;3.40;;;13.80;99.90;;;;;;5036838;28;20415;-68
2023/11/20 04:14:31;;;;;;;13.70;2.90;;;13.80;99.90;;;;;;5041090;28;20501;-68
2023/11/20 04:16:58;;;;;;;11.20;3.20;;;13.80;99.90;;;;;;5037940;28;21123;-68
2023/11/20 04:19:24;;;;;;;16.00;4.20;;;13.90;99.90;;;;;;5036566;28;20187;-68
2023/11/20 04:21:49;;;;;;;13.73;3.20;;;13.90;99.90;;;;;;5036569;28;20423;-68
2023/11/20 04:24:15;;;;;;;9.00;3.03;;;13.90;99.90;;;;;;5033531;28;20215;-68
2023/11/20 04:26:40;;;;;;;12.17;3.40;;;13.80;99.90;;;;;;5036790;28;20547;-69
2023/11/20 04:29:06;;;;;;;9.90;2.97;;;13.80;99.90;;;;;;5037825;28;20619;-68
2023/11/20 04:31:31;;;;;;;12.83;3.20;;;13.70;99.90;;;;;;5040786;28;21705;-68
2023/11/20 04:33:57;;;;;;;9.50;2.80;;;13.70;99.90;;;;;;5034360;28;20188;-68
2023/11/20 04:36:22;;;;;;;16.60;4.70;;;13.70;99.90;;;;;;5036074;28;20275;-68
2023/11/20 04:38:48;;;;;;;14.17;3.90;;;13.60;99.90;;;;;;5037392;28;20179;-68
2023/11/20 04:41:15;;;;;;;17.00;3.27;;;13.60;99.90;;;;;;5037691;28;20730;-68
2023/11/20 04:43:40;;;;;;;14.33;3.27;;;13.60;99.90;;;;;;5036712;28;20534;-69
2023/11/20 04:46:09;;;;;;;15.90;3.70;;;13.60;99.90;;;;;;5039052;28;20176;-69
2023/11/20 04:48:36;;;;;;;9.37;3.03;;;13.60;99.90;;;;;;5043831;28;20179;-68
2023/11/20 04:51:01;;;;;;;17.17;3.70;;;13.60;99.90;;;;;;5041557;28;20418;-68
2023/11/20 04:53:27;;;;;;;11.73;3.43;;;13.50;99.90;;;;;;5036007;28;20431;-68
2023/11/20 04:55:53;;;;;;;12.17;4.17;;;13.50;99.90;;;;;;5039196;28;20184;-68
2023/11/20 04:58:21;;;;;;;13.77;3.23;;;13.60;99.90;;;;;;5036069;28;20183;-68
2023/11/20 05:00:48;;;;;;;10.43;2.67;;;13.60;99.90;;;;;;5038028;28;20476;-68
2023/11/20 05:03:15;;;;;;;18.20;4.00;;;13.50;99.90;;;;;;5035851;28;20921;-68
2023/11/20 05:05:40;;;;;;;21.33;3.57;;;13.50;99.90;;;;;;5037520;28;20454;-68
2023/11/20 05:08:06;;;;;;;12.57;2.63;;;13.50;99.90;;;;;;5039754;28;20438;-68
2023/11/20 05:10:32;;;;;;;9.33;3.40;;;13.50;99.90;;;;;;5036197;28;20192;-69
2023/11/20 05:12:58;;;;;;;17.47;3.80;;;13.40;99.90;;;;;;5041840;28;20223;-68
2023/11/20 05:15:23;;;;;;;13.63;4.00;;;13.40;99.90;;;;;;5037786;28;20945;-68
2023/11/20 05:17:49;;;;;;;14.90;4.10;;;13.40;99.90;;;;;;5040760;28;20820;-68
2023/11/20 05:20:14;;;;;;;15.63;3.50;;;13.50;99.90;;;;;;5037038;28;20189;-69
2023/11/20 05:22:40;;;;;;;11.03;3.30;;;13.40;99.90;;;;;;5043336;28;20207;-68
2023/11/20 05:25:07;;;;;;;9.80;2.70;;;13.40;99.90;;;;;;5034963;28;20212;-68
2023/11/20 05:27:32;;;;;;;17.13;2.40;;;13.40;99.90;;;;;;5038123;28;20183;-68
2023/11/20 05:29:58;;;;;;;8.27;3.60;;;13.40;99.90;;;;;;5042692;28;21087;-69
2023/11/20 05:32:24;;;;;;;13.50;3.67;;;13.40;99.90;;;;;;5038865;28;20181;-69
2023/11/20 05:34:49;;;;;;;8.07;3.70;;;13.50;99.90;;;;;;5039152;28;20223;-68
2023/11/20 05:37:15;;;;;;;9.83;3.00;;;13.40;99.90;;;;;;5036595;28;20180;-69
2023/11/20 05:39:40;;;;;;;11.20;3.20;;;13.40;99.90;;;;;;5037724;28;20660;-68
2023/11/20 05:42:09;;;;;;;13.27;3.90;;;13.40;99.90;;;;;;5040654;28;20192;-67
2023/11/20 05:44:34;;;;;;;11.60;4.93;;;13.40;99.90;;;;;;5042191;28;20211;-68
2023/11/20 05:47:00;;;;;;;15.23;3.03;;;13.40;99.90;;;;;;5039344;28;21066;-68
2023/11/20 05:49:25;;;;;;;11.93;3.13;;;13.40;99.90;;;;;;5041962;28;20944;-68
2023/11/20 05:51:52;;;;;;;9.60;2.80;;;13.40;99.90;;;;;;5038889;28;20179;-68
2023/11/20 05:54:18;;;;;;;15.07;3.30;;;13.40;99.90;;;;;;5033727;28;20747;-68
2023/11/20 05:56:46;;;;;;;17.13;4.93;;;13.50;99.90;;;;;;5040553;28;20441;-67
2023/11/20 05:59:12;;;;;;;15.87;4.90;;;13.60;99.90;;;;;;5035585;28;20183;-67
2023/11/20 06:01:40;;;;;;;17.90;3.37;;;13.60;99.90;;;;;;5038306;28;20414;-68
2023/11/20 06:04:08;;;;;;;10.80;2.87;;;13.60;99.90;;;;;;5038455;28;20927;-67
2023/11/20 06:06:38;;;;;;;11.63;4.03;;;13.60;99.90;;;;;;5036272;28;20559;-68
2023/11/20 06:09:05;;;;;;;9.43;3.10;;;13.50;99.90;;;;;;5039872;28;20423;-68
2023/11/20 06:11:31;;;;;;;13.10;3.20;;;13.50;99.90;;;;;;5042551;28;20422;-68
2023/11/20 06:13:58;;;;;;;13.90;4.57;;;13.40;99.90;;;;;;5038798;28;20434;-67
2023/11/20 06:16:24;;;;;;;8.97;2.73;;;13.30;99.90;;;;;;5033589;28;20430;-68
2023/11/20 06:18:49;;;;;;;13.87;3.10;;;13.30;99.90;;;;;;5037010;28;20418;-68
2023/11/20 06:21:15;;;;;;;11.10;2.70;;;13.20;99.90;;;;;;5039604;28;20441;-67
2023/11/20 06:23:40;;;;;;;13.40;2.93;;;13.20;99.90;;;;;;5038868;28;20239;-67
2023/11/20 06:26:06;;;;;;;20.80;4.40;;;13.10;99.90;;;;;;5039539;28;20285;-68
2023/11/20 06:28:32;;;;;;;11.73;3.10;;;13.10;99.90;;;;;;5038522;28;20658;-67
2023/11/20 06:30:57;;;;;;;9.83;2.43;;;13.20;99.90;;;;;;5037522;28;20181;-67
2023/11/20 06:33:23;;;;;;;5.90;2.50;;;13.30;99.90;;;;;;5033352;28;20199;-68
2023/11/20 06:35:48;;;;;;;10.47;2.60;;;13.30;99.90;;;;;;5039271;28;20831;-68
2023/11/20 06:38:14;;;;;;;9.87;3.00;;;13.30;99.90;;;;;;5040044;28;20643;-69
2023/11/20 06:40:40;;;;;;;8.33;2.83;;;13.40;99.90;;;;;;5041248;28;20199;-68
2023/11/20 06:43:06;;;;;;;10.17;2.80;;;13.40;99.90;;;;;;5036679;28;20577;-68
2023/11/20 06:45:32;;;;;;;9.17;2.87;;;13.40;99.90;;;;;;5039163;28;20480;-68
2023/11/20 06:47:58;;;;;;;12.70;2.73;;;13.40;99.90;;;;;;5034215;28;20427;-67
2023/11/20 06:50:27;;;;;;;9.73;3.07;;;13.40;99.90;;;;;;5035093;28;20172;-68
2023/11/20 06:52:54;;;;;;;12.60;2.60;;;13.30;99.90;;;;;;5034732;28;20205;-68
2023/11/20 06:55:19;;;;;;;9.20;2.90;;;13.20;99.90;;;;;;5035746;28;20929;-68
2023/11/20 06:57:45;;;;;;;11.10;2.77;;;13.20;99.90;;;;;;5037571;28;20476;-68
2023/11/20 07:00:14;;;;;;;5.90;2.60;;;13.20;99.90;;;;;;5040101;28;20177;-68
2023/11/20 07:02:42;;;;;;;9.60;2.90;;;13.20;99.90;;;;;;5033566;28;20625;-68
2023/11/20 07:05:08;;;;;;;6.40;3.13;;;13.20;99.90;;;;;;5041337;28;20544;-68
2023/11/20 07:07:40;;;;;;;8.07;3.03;;;13.20;99.90;;;;;;5036012;28;20441;-68
2023/11/20 07:10:11;;;;;;;12.90;2.80;;;13.20;99.90;;;;;;5037581;28;20588;-68
2023/11/20 07:12:38;;;;;;;6.33;2.50;;;13.20;99.90;;;;;;5038111;28;20446;-67
2023/11/20 07:15:07;;;;;;;8.20;2.87;;;13.30;99.90;;;;;;5044049;28;20448;-68
2023/11/20 07:17:36;;;;;;;8.03;3.00;;;13.30;99.90;;;;;;5031648;28;20538;-68
2023/11/20 07:20:02;;;;;;;7.10;2.17;;;13.20;99.90;;;;;;5037647;28;20823;-68
2023/11/20 07:22:28;;;;;;;14.27;3.33;;;13.20;99.90;;;;;;5040067;28;20457;-68
2023/11/20 07:24:54;;;;;;;11.23;3.03;;;13.20;99.90;;;;;;5040165;28;20458;-67
2023/11/20 07:27:20;;;;;;;7.80;2.13;;;13.20;99.90;;;;;;5036971;28;20233;-68
2023/11/20 07:29:45;;;;;;;8.07;3.03;;;13.20;99.90;;;;;;5043411;28;20415;-68
2023/11/20 07:32:11;;;;;;;19.67;3.50;;;13.20;99.90;;;;;;5043047;28;20216;-68
2023/11/20 07:34:37;;;;;;;9.93;3.10;;;13.20;99.90;;;;;;5041515;28;20176;-68
2023/11/20 07:37:04;;;;;;;7.60;2.67;;;13.20;99.90;;;;;;5040783;28;20203;-68
2023/11/20 07:39:29;;;;;;;6.67;2.70;;;13.20;99.90;;;;;;5037672;28;20187;-67
2023/11/20 07:41:56;;;;;;;8.60;2.50;;;13.30;99.90;;;;;;5037791;28;20441;-68
2023/11/20 07:44:22;;;;;;;5.90;2.57;;;13.30;99.90;;;;;;5040821;28;20604;-68
2023/11/20 07:46:48;;;;;;;8.93;2.63;;;13.30;99.90;;;;;;5045713;28;20426;-68
2023/11/20 07:49:14;;;;;;;11.80;2.70;;;13.10;99.90;;;;;;5043408;28;20638;-67
2023/11/20 07:51:39;;;;;;;12.00;2.80;;;13.20;99.90;;;;;;5041136;28;20195;-68
2023/11/20 07:54:07;;;;;;;10.90;3.40;;;13.20;99.90;;;;;;5039723;28;20699;-68
2023/11/20 07:56:33;;;;;;;12.90;5.17;;;13.20;99.90;;;;;;5040256;28;20194;-68
2023/11/20 07:58:59;;;;;;;10.60;2.90;;;13.20;99.90;;;;;;5038719;28;20646;-68
2023/11/20 08:01:25;;;;;;;12.77;2.97;;;13.30;99.90;;;;;;5036464;28;20505;-69
2023/11/20 08:03:51;;;;;;;11.10;3.83;;;13.30;99.90;;;;;;5037972;28;20195;-68
2023/11/20 08:06:17;;;;;;;7.80;2.70;;;13.40;99.90;;;;;;5039236;28;20410;-68
2023/11/20 08:08:42;;;;;;;8.13;3.13;;;13.40;99.90;;;;;;5039143;28;20171;-68
2023/11/20 08:11:08;;;;;;;8.40;3.20;;;13.30;99.90;;;;;;5046558;28;20211;-68
2023/11/20 08:13:35;;;;;;;9.83;3.40;;;13.30;99.90;;;;;;5039042;28;20208;-68
2023/11/20 08:16:02;;;;;;;11.77;3.37;;;13.30;99.90;;;;;;5039889;28;20314;-69
2023/11/20 08:18:28;;;;;;;14.33;3.60;;;13.40;99.90;;;;;;5035613;28;21173;-69
2023/11/20 08:20:54;;;;;;;10.73;2.83;;;13.40;99.90;;;;;;5038462;28;20435;-69
2023/11/20 08:23:20;;;;;;;13.87;4.13;;;13.40;99.90;;;;;;5035400;28;20216;-68
2023/11/20 08:25:46;;;;;;;11.03;3.30;;;13.40;99.90;;;;;;5036605;28;20466;-69
2023/11/20 08:28:12;;;;;;;8.43;2.50;;;13.40;99.90;;;;;;5038433;28;20414;-68
2023/11/20 08:30:37;;;;;;;8.17;3.73;;;13.40;99.90;;;;;;5038729;28;20178;-69
2023/11/20 08:33:03;;;;;;;9.60;2.50;;;13.30;99.90;;;;;;5035535;28;20196;-69
2023/11/20 08:35:29;;;;;;;12.43;3.17;;;13.20;99.90;;;;;;5041317;28;20183;-69
2023/11/20 08:37:54;;;;;;;6.63;2.47;;;13.20;99.90;;;;;;5037896;28;20243;-68
2023/11/20 08:40:21;;;;;;;6.97;2.40;;;13.10;99.90;;;;;;5044658;28;20175;-67
2023/11/20 08:42:46;;;;;;;10.70;2.33;;;12.90;99.90;;;;;;5041848;28;20256;-67
2023/11/20 08:45:12;;;;;;;8.23;2.13;;;12.90;99.90;;;;;;5040475;28;20461;-67
2023/11/20 08:47:39;;;;;;;6.80;2.63;;;12.70;99.90;;;;;;5038679;28;20188;-69
2023/11/20 08:50:06;;;;;;;13.33;4.20;;;12.70;99.90;;;;;;5038351;28;20191;-69
2023/11/20 08:52:32;;;;;;;8.63;2.50;;;12.70;99.90;;;;;;5038309;28;20442;-68
2023/11/20 08:54:58;;;;;;;8.47;2.77;;;12.60;99.90;;;;;;5035721;28;21086;-68
2023/11/20 08:57:23;;;;;;;8.80;2.53;;;12.60;99.90;;;;;;5040782;28;20252;-69
2023/11/20 08:59:49;;;;;;;9.63;2.37;;;12.60;99.90;;;;;;5038177;28;20256;-68
2023/11/20 09:02:15;;;;;;;13.67;2.70;;;12.60;99.90;;;;;;5037044;28;20181;-69
2023/11/20 09:04:41;;;;;;;10.57;2.87;;;12.70;99.90;;;;;;5034399;28;20458;-68
2023/11/20 09:07:08;;;;;;;11.80;2.70;;;12.70;99.90;;;;;;5036098;28;20462;-68
2023/11/20 09:09:35;;;;;;;9.10;2.73;;;12.70;99.90;;;;;;5038006;28;21019;-69
2023/11/20 09:12:04;;;;;;;8.13;3.30;;;12.80;99.90;;;;;;5040211;28;20417;-68
2023/11/20 09:14:30;;;;;;;8.00;3.20;;;12.80;99.90;;;;;;5035653;28;20434;-68
2023/11/20 09:16:56;;;;;;;9.07;2.47;;;12.90;99.90;;;;;;5036128;28;20430;-69
2023/11/20 09:19:22;;;;;;;9.73;2.90;;;12.90;99.90;;;;;;5045072;28;20507;-68
2023/11/20 09:21:48;;;;;;;9.67;2.80;;;13.00;99.90;;;;;;5043056;28;20421;-68
2023/11/20 09:24:14;;;;;;;14.20;3.77;;;13.00;99.90;;;;;;5043036;28;20547;-69
2023/11/20 09:26:41;;;;;;;7.40;2.60;;;13.10;99.90;;;;;;5029197;28;20510;-69
2023/11/20 09:29:07;;;;;;;15.93;3.57;;;13.10;99.90;;;;;;5036752;28;20287;-68
2023/11/20 09:31:35;;;;;;;8.23;2.67;;;13.00;99.90;;;;;;5041779;28;20506;-69
2023/11/20 09:34:01;;;;;;;8.37;2.40;;;12.90;99.90;;;;;;5041353;28;20203;-68
2023/11/20 09:36:27;;;;;;;5.97;2.20;;;12.90;99.90;;;;;;5032158;28;20427;-68
2023/11/20 09:38:53;;;;;;;8.87;2.73;;;12.90;99.90;;;;;;5040547;28;21203;-70
2023/11/20 09:41:19;;;;;;;10.07;2.67;;;12.90;99.90;;;;;;5042219;28;20605;-70
2023/11/20 09:43:44;;;;;;;12.50;2.77;;;13.10;99.90;;;;;;5034466;28;20207;-69
2023/11/20 09:46:15;;;;;;;10.13;3.23;;;13.00;99.90;;;;;;5037315;28;20212;-69
2023/11/20 09:48:43;;;;;;;10.30;2.40;;;13.00;99.90;;;;;;5039343;28;20179;-69
2023/11/20 09:51:10;;;;;;;10.77;3.57;;;12.90;99.90;;;;;;5036870;28;21002;-69
2023/11/20 09:53:37;;;;;;;9.33;2.50;;;12.90;99.90;;;;;;5035873;28;20481;-70
2023/11/20 09:56:03;;;;;;;7.77;2.20;;;12.90;99.90;;;;;;5039625;28;20407;-69
2023/11/20 09:58:32;;;;;;;10.83;2.53;;;12.90;99.90;;;;;;5033598;28;20438;-68
2023/11/20 10:01:10;;;;;;;9.77;2.60;;;13.00;99.90;;;;;;5037366;28;20784;-70
2023/11/20 10:03:39;;;;;;;11.53;3.37;;;13.20;99.90;;;;;;5034356;28;20483;-70
2023/11/20 10:06:12;;;;;;;14.37;2.90;;;13.00;99.90;;;;;;5036917;28;20493;-69
2023/11/20 10:08:40;;;;;;;9.63;3.00;;;13.10;99.90;;;;;;5036659;28;20948;-69
2023/11/20 10:11:07;;;;;;;6.07;2.80;;;13.10;99.90;;;;;;5036172;28;20413;-69
2023/11/20 10:13:34;;;;;;;9.30;4.10;;;13.10;99.90;;;;;;5037619;28;20465;-69
2023/11/20 10:16:01;;;;;;;8.93;2.87;;;13.10;99.90;;;;;;5035516;28;20867;-70
2023/11/20 10:18:27;;;;;;;7.23;2.17;;;13.20;99.90;;;;;;5036613;28;20502;-70
2023/11/20 10:20:53;;;;;;;12.60;3.50;;;13.20;99.90;;;;;;5036757;28;20533;-71
2023/11/20 10:23:20;;;;;;;7.30;2.90;;;13.10;99.90;;;;;;5038901;28;20215;-70
2023/11/20 10:25:47;;;;;;;8.23;2.97;;;13.20;99.90;;;;;;5041609;28;20578;-69
2023/11/20 10:28:16;;;;;;;11.40;3.17;;;13.20;99.90;;;;;;5038421;28;20430;-69
2023/11/20 10:30:43;;;;;;;10.50;3.53;;;13.30;99.90;;;;;;5031431;28;20464;-69
2023/11/20 10:33:18;;;;;;;5.73;2.20;;;13.30;99.90;;;;;;5035302;28;20860;-69
2023/11/20 10:35:45;;;;;;;8.93;2.17;;;13.30;99.90;;;;;;5029197;28;20884;-68
2023/11/20 10:38:11;;;;;;;7.00;2.20;;;13.20;99.90;;;;;;5035022;28;20504;-66
2023/11/20 10:40:40;;;;;;;8.73;2.63;;;13.30;99.90;;;;;;5037595;28;20433;-67
2023/11/20 10:43:06;;;;;;;10.50;2.47;;;13.40;99.90;;;;;;5029481;28;20516;-67
2023/11/20 10:45:33;;;;;;;8.60;2.50;;;13.30;99.90;;;;;;5033738;28;20462;-68
2023/11/20 10:48:00;;;;;;;5.80;2.17;;;13.30;99.90;;;;;;5032145;28;20271;-68
2023/11/20 10:50:31;;;;;;;8.20;2.27;;;13.40;99.90;;;;;;5032523;28;21122;-68
2023/11/20 10:53:06;;;;;;;8.20;3.00;;;13.60;99.90;;;;;;5038602;28;21539;-68
2023/11/20 10:55:39;;;;;;;9.70;2.80;;;13.60;99.90;;;;;;5037927;28;20426;-67
2023/11/20 10:58:08;;;;;;;9.07;2.73;;;13.50;99.90;;;;;;5038537;28;20430;-69
2023/11/20 11:00:34;;;;;;;6.30;2.07;;;13.60;99.90;;;;;;5041072;28;20493;-69
2023/11/20 11:03:01;;;;;;;7.60;2.63;;;13.60;99.90;;;;;;5041335;28;20452;-69
2023/11/20 11:05:29;;;;;;;11.50;2.47;;;13.60;99.90;;;;;;5038166;28;20474;-69
2023/11/20 11:07:57;;;;;;;7.83;2.27;;;13.40;99.90;;;;;;5036250;28;20418;-69
2023/11/20 11:10:24;;;;;;;8.63;2.20;;;13.50;99.90;;;;;;5035109;28;20541;-69
2023/11/20 11:12:49;;;;;;;3.90;1.70;;;13.50;99.90;;;;;;5037151;28;20427;-69
2023/11/20 11:15:15;;;;;;;5.07;2.07;;;13.60;99.90;;;;;;5041917;28;20507;-68
2023/11/20 11:18:01;;;;;;;11.07;2.00;;;13.60;99.90;;;;;;5035983;28;20464;-68
2023/11/20 11:20:50;;;;;;;4.70;1.83;;;13.40;99.90;;;;;;5039225;28;20184;-68
2023/11/20 11:23:19;;;;;;;6.60;1.97;;;13.50;99.90;;;;;;5019413;28;21187;-68
2023/11/20 11:26:06;;;;;;;3.30;1.53;;;13.50;99.90;;;;;;5035351;28;20603;-69
2023/11/20 11:28:34;;;;;;;7.13;2.00;;;13.60;99.90;;;;;;5038363;28;20432;-69
2023/11/20 11:31:01;;;;;;;6.00;1.93;;;13.60;99.90;;;;;;5037616;28;20917;-68
2023/11/20 11:33:52;;;;;;;6.73;2.10;;;13.60;99.90;;;;;;5038349;28;20200;-68
2023/11/20 11:36:28;;;;;;;8.53;1.90;;;13.40;99.90;;;;;;5034903;28;20449;-68
2023/11/20 11:39:15;;;;;;;6.60;1.90;;;13.50;99.90;;;;;;5035510;28;20509;-68
2023/11/20 11:41:45;;;;;;;5.13;1.70;;;13.60;99.90;;;;;;5038589;28;20407;-70
2023/11/20 11:44:14;;;;;;;5.90;1.60;;;13.60;99.90;;;;;;5035711;28;20473;-68
2023/11/20 11:46:43;;;;;;;6.40;2.20;;;13.60;99.90;;;;;;5037279;28;20514;-69
2023/11/20 11:49:29;;;;;;;3.77;1.43;;;13.70;99.90;;;;;;5037842;28;20418;-69
2023/11/20 11:52:04;;;;;;;8.97;2.47;;;13.80;99.90;;;;;;5040989;28;20434;-69
2023/11/20 11:54:30;;;;;;;9.07;2.37;;;14.00;99.90;;;;;;5036781;28;20974;-69
2023/11/20 11:57:00;;;;;;;3.63;1.80;;;13.90;99.90;;;;;;5034397;28;20470;-69
2023/11/20 11:59:33;;;;;;;6.67;1.80;;;13.80;99.90;;;;;;5034078;28;20442;-70
2023/11/20 12:01:59;;;;;;;7.00;2.00;;;13.70;99.90;;;;;;5024861;28;20620;-70
2023/11/20 12:05:03;;;;;;;7.17;2.10;;;13.50;99.90;;;;;;5037140;28;21294;-70
2023/11/20 12:07:35;;;;;;;5.17;1.93;;;13.30;99.90;;;;;;4932868;28;20271;-70
2023/11/20 12:10:00;;;;;;;5.13;2.00;;;13.30;99.90;;;;;;4935442;28;20439;-68
2023/11/20 12:12:48;;;;;;;3.37;2.00;;;13.10;99.90;;;;;;4993266;28;20430;-69
2023/11/20 12:15:37;;;;;;;10.97;2.17;;;13.00;99.90;;;;;;5037126;28;20601;-69
2023/11/20 12:18:07;;;;;;;4.47;1.63;;;13.00;99.90;;;;;;5041232;28;20846;-69
2023/11/20 12:20:33;;;;;;;5.93;1.83;;;13.00;99.90;;;;;;5041173;28;20422;-69
2023/11/20 12:23:09;;;;;;;6.37;2.30;;;13.00;99.90;;;;;;5036792;28;20470;-71
2023/11/20 12:25:38;;;;;;;3.77;1.90;;;13.10;99.90;;;;;;5035778;28;20467;-69
2023/11/20 12:28:09;;;;;;;6.17;2.17;;;13.20;99.90;;;;;;5035228;28;20442;-69
2023/11/20 12:30:45;;;;;;;7.07;2.07;;;13.40;99.90;;;;;;5042788;28;20413;-69
2023/11/20 12:33:11;;;;;;;5.97;2.00;;;13.30;99.90;;;;;;5035281;28;21245;-69
2023/11/20 12:35:37;;;;;;;6.23;1.70;;;13.50;99.90;;;;;;5037689;28;20505;-70
2023/11/20 12:38:04;;;;;;;5.97;1.97;;;13.60;99.90;;;;;;5036709;28;20188;-70
2023/11/20 12:40:29;;;;;;;8.83;2.20;;;13.80;99.90;;;;;;5036602;28;20451;-70